sensor_id;sensor_type;location;lat;lon;timestamp;P1;durP1;ratioP1;P2;durP2;ratioP2
35462;SDS011;21578;47.892;9.970;2024-03-23T00:55:55;4.43;;;3.20;;
35462;SDS011;21578;47.892;9.970;2024-03-23T01:00:42;2.37;;;2.07;;
35462;SDS011;21578;47.892;9.970;2024-03-23T01:05:28;1.93;;;1.83;;
35462;SDS011;21578;47.892;9.970;2024-03-23T01:10:15;2.07;;;1.60;;
35462;SDS011;21578;47.892;9.970;2024-03-23T01:15:04;5.60;;;1.87;;
35462;SDS011;21578;47.892;9.970;2024-03-23T01:19:51;20.17;;;14.87;;
35462;SDS011;21578;47.892;9.970;2024-03-23T01:24:38;3.33;;;2.40;;
35462;SDS011;21578;47.892;9.970;2024-03-23T01:29:24;2.30;;;1.60;;
35462;SDS011;21578;47.892;9.970;2024-03-23T01:34:12;2.03;;;1.60;;
35462;SDS011;21578;47.892;9.970;2024-03-23T01:38:59;2.80;;;2.30;;
35462;SDS011;21578;47.892;9.970;2024-03-23T01:43:46;1.40;;;1.30;;
35462;SDS011;21578;47.892;9.970;2024-03-23T01:48:33;1.60;;;1.50;;
35462;SDS011;21578;47.892;9.970;2024-03-23T01:53:21;1.93;;;1.20;;
35462;SDS011;21578;47.892;9.970;2024-03-23T01:58:08;1.80;;;1.07;;
35462;SDS011;21578;47.892;9.970;2024-03-23T02:02:55;2.00;;;1.43;;
35462;SDS011;21578;47.892;9.970;2024-03-23T02:07:42;1.73;;;1.50;;
35462;SDS011;21578;47.892;9.970;2024-03-23T02:12:30;1.30;;;1.20;;
35462;SDS011;21578;47.892;9.970;2024-03-23T02:17:17;4.10;;;2.80;;
35462;SDS011;21578;47.892;9.970;2024-03-23T02:22:04;2.87;;;2.57;;
35462;SDS011;21578;47.892;9.970;2024-03-23T02:26:52;2.20;;;0.90;;
35462;SDS011;21578;47.892;9.970;2024-03-23T02:31:39;0.93;;;0.90;;
35462;SDS011;21578;47.892;9.970;2024-03-23T02:36:25;1.03;;;0.70;;
35462;SDS011;21578;47.892;9.970;2024-03-23T02:41:12;1.83;;;1.07;;
35462;SDS011;21578;47.892;9.970;2024-03-23T02:46:01;1.10;;;0.90;;
35462;SDS011;21578;47.892;9.970;2024-03-23T02:50:49;1.00;;;1.00;;
35462;SDS011;21578;47.892;9.970;2024-03-23T02:55:36;1.33;;;0.90;;
35462;SDS011;21578;47.892;9.970;2024-03-23T03:00:22;1.10;;;1.00;;
35462;SDS011;21578;47.892;9.970;2024-03-23T03:05:10;2.20;;;1.10;;
35462;SDS011;21578;47.892;9.970;2024-03-23T03:09:58;2.83;;;1.20;;
35462;SDS011;21578;47.892;9.970;2024-03-23T03:14:45;0.87;;;0.80;;
35462;SDS011;21578;47.892;9.970;2024-03-23T03:19:33;1.17;;;0.60;;
35462;SDS011;21578;47.892;9.970;2024-03-23T03:24:21;1.13;;;1.00;;
35462;SDS011;21578;47.892;9.970;2024-03-23T03:29:08;0.93;;;0.57;;
35462;SDS011;21578;47.892;9.970;2024-03-23T03:33:55;2.30;;;0.80;;
35462;SDS011;21578;47.892;9.970;2024-03-23T03:38:42;0.87;;;0.80;;
35462;SDS011;21578;47.892;9.970;2024-03-23T03:43:30;0.80;;;0.70;;
35462;SDS011;21578;47.892;9.970;2024-03-23T03:48:16;7.27;;;3.43;;
35462;SDS011;21578;47.892;9.970;2024-03-23T03:53:03;4.83;;;2.97;;
35462;SDS011;21578;47.892;9.970;2024-03-23T03:57:50;10.87;;;6.00;;
35462;SDS011;21578;47.892;9.970;2024-03-23T04:02:38;1.40;;;1.30;;
35462;SDS011;21578;47.892;9.970;2024-03-23T04:07:25;4.07;;;1.23;;
35462;SDS011;21578;47.892;9.970;2024-03-23T04:12:12;149.90;;;76.97;;
35462;SDS011;21578;47.892;9.970;2024-03-23T04:16:58;234.17;;;132.63;;
35462;SDS011;21578;47.892;9.970;2024-03-23T04:21:47;133.67;;;77.07;;
35462;SDS011;21578;47.892;9.970;2024-03-23T04:26:40;45.10;;;30.30;;
35462;SDS011;21578;47.892;9.970;2024-03-23T04:31:26;36.57;;;22.60;;
35462;SDS011;21578;47.892;9.970;2024-03-23T04:36:13;24.13;;;19.53;;
35462;SDS011;21578;47.892;9.970;2024-03-23T04:41:01;3.37;;;2.20;;
35462;SDS011;21578;47.892;9.970;2024-03-23T04:45:48;2.60;;;1.30;;
35462;SDS011;21578;47.892;9.970;2024-03-23T04:50:35;1.60;;;1.50;;
35462;SDS011;21578;47.892;9.970;2024-03-23T04:55:22;1.57;;;1.43;;
35462;SDS011;21578;47.892;9.970;2024-03-23T05:00:11;1.77;;;1.67;;
35462;SDS011;21578;47.892;9.970;2024-03-23T05:05:02;1.07;;;1.03;;
35462;SDS011;21578;47.892;9.970;2024-03-23T05:09:52;0.90;;;0.90;;
35462;SDS011;21578;47.892;9.970;2024-03-23T05:14:39;1.33;;;0.90;;
35462;SDS011;21578;47.892;9.970;2024-03-23T05:19:27;1.00;;;0.80;;
35462;SDS011;21578;47.892;9.970;2024-03-23T05:24:13;1.27;;;0.83;;
35462;SDS011;21578;47.892;9.970;2024-03-23T05:29:00;2.83;;;1.37;;
35462;SDS011;21578;47.892;9.970;2024-03-23T05:33:47;1.83;;;1.73;;
35462;SDS011;21578;47.892;9.970;2024-03-23T05:38:35;1.20;;;1.10;;
35462;SDS011;21578;47.892;9.970;2024-03-23T05:43:22;1.60;;;0.80;;
35462;SDS011;21578;47.892;9.970;2024-03-23T05:48:08;1.03;;;0.70;;
35462;SDS011;21578;47.892;9.970;2024-03-23T05:52:55;1.17;;;0.80;;
35462;SDS011;21578;47.892;9.970;2024-03-23T05:57:43;2.37;;;1.60;;
35462;SDS011;21578;47.892;9.970;2024-03-23T06:02:30;2.20;;;2.10;;
35462;SDS011;21578;47.892;9.970;2024-03-23T06:07:17;3.33;;;1.07;;
35462;SDS011;21578;47.892;9.970;2024-03-23T06:12:03;1.70;;;0.60;;
35462;SDS011;21578;47.892;9.970;2024-03-23T06:16:52;1.37;;;1.27;;
35462;SDS011;21578;47.892;9.970;2024-03-23T06:21:42;39.30;;;35.83;;
35462;SDS011;21578;47.892;9.970;2024-03-23T06:26:29;16.60;;;15.40;;
35462;SDS011;21578;47.892;9.970;2024-03-23T06:31:16;2.50;;;2.20;;
35462;SDS011;21578;47.892;9.970;2024-03-23T06:36:05;1.43;;;1.20;;
35462;SDS011;21578;47.892;9.970;2024-03-23T06:40:52;2.80;;;1.90;;
35462;SDS011;21578;47.892;9.970;2024-03-23T06:45:38;2.10;;;1.70;;
35462;SDS011;21578;47.892;9.970;2024-03-23T06:50:25;3.60;;;2.70;;
35462;SDS011;21578;47.892;9.970;2024-03-23T06:55:14;2.27;;;2.07;;
35462;SDS011;21578;47.892;9.970;2024-03-23T07:00:01;4.53;;;2.93;;
35462;SDS011;21578;47.892;9.970;2024-03-23T07:04:49;4.37;;;3.00;;
35462;SDS011;21578;47.892;9.970;2024-03-23T07:09:35;3.67;;;3.37;;
35462;SDS011;21578;47.892;9.970;2024-03-23T07:14:24;44.60;;;34.23;;
35462;SDS011;21578;47.892;9.970;2024-03-23T07:19:11;70.77;;;46.53;;
35462;SDS011;21578;47.892;9.970;2024-03-23T07:23:57;47.43;;;32.00;;
35462;SDS011;21578;47.892;9.970;2024-03-23T07:28:44;6.90;;;6.20;;
35462;SDS011;21578;47.892;9.970;2024-03-23T07:33:33;4.37;;;3.80;;
35462;SDS011;21578;47.892;9.970;2024-03-23T07:38:19;3.00;;;2.77;;
35462;SDS011;21578;47.892;9.970;2024-03-23T07:43:06;3.23;;;3.00;;
35462;SDS011;21578;47.892;9.970;2024-03-23T07:47:53;2.53;;;2.33;;
35462;SDS011;21578;47.892;9.970;2024-03-23T07:52:41;2.73;;;2.13;;
35462;SDS011;21578;47.892;9.970;2024-03-23T07:57:28;4.27;;;3.27;;
35462;SDS011;21578;47.892;9.970;2024-03-23T08:02:14;2.60;;;2.40;;
35462;SDS011;21578;47.892;9.970;2024-03-23T08:07:01;2.50;;;2.30;;
35462;SDS011;21578;47.892;9.970;2024-03-23T08:11:50;2.83;;;2.60;;
35462;SDS011;21578;47.892;9.970;2024-03-23T08:16:36;3.07;;;2.77;;
35462;SDS011;21578;47.892;9.970;2024-03-23T08:21:23;1.80;;;1.70;;
35462;SDS011;21578;47.892;9.970;2024-03-23T08:26:10;2.60;;;2.40;;
35462;SDS011;21578;47.892;9.970;2024-03-23T08:31:01;3.10;;;2.03;;
35462;SDS011;21578;47.892;9.970;2024-03-23T08:35:53;1.73;;;1.63;;
35462;SDS011;21578;47.892;9.970;2024-03-23T08:40:41;3.00;;;2.20;;
35462;SDS011;21578;47.892;9.970;2024-03-23T08:45:28;3.03;;;2.20;;
35462;SDS011;21578;47.892;9.970;2024-03-23T08:50:16;2.00;;;1.83;;
35462;SDS011;21578;47.892;9.970;2024-03-23T08:55:03;1.77;;;1.67;;
35462;SDS011;21578;47.892;9.970;2024-03-23T08:59:50;1.40;;;1.30;;
35462;SDS011;21578;47.892;9.970;2024-03-23T09:04:36;3.17;;;1.00;;
35462;SDS011;21578;47.892;9.970;2024-03-23T09:09:24;1.40;;;1.20;;
35462;SDS011;21578;47.892;9.970;2024-03-23T09:14:11;0.90;;;0.90;;
35462;SDS011;21578;47.892;9.970;2024-03-23T09:18:58;0.70;;;0.70;;
35462;SDS011;21578;47.892;9.970;2024-03-23T09:23:45;0.47;;;0.30;;
35462;SDS011;21578;47.892;9.970;2024-03-23T09:28:33;0.10;;;0.10;;
35462;SDS011;21578;47.892;9.970;2024-03-23T09:33:20;0.30;;;0.30;;
35462;SDS011;21578;47.892;9.970;2024-03-23T09:38:07;0.30;;;0.30;;
35462;SDS011;21578;47.892;9.970;2024-03-23T09:42:54;0.50;;;0.30;;
35462;SDS011;21578;47.892;9.970;2024-03-23T09:47:42;23.13;;;14.33;;
35462;SDS011;21578;47.892;9.970;2024-03-23T09:52:31;16.63;;;9.77;;
35462;SDS011;21578;47.892;9.970;2024-03-23T09:57:17;76.30;;;52.97;;
35462;SDS011;21578;47.892;9.970;2024-03-23T10:02:04;3.70;;;3.40;;
35462;SDS011;21578;47.892;9.970;2024-03-23T10:06:53;0.20;;;0.00;;
35462;SDS011;21578;47.892;9.970;2024-03-23T10:11:40;0.10;;;0.10;;
35462;SDS011;21578;47.892;9.970;2024-03-23T10:16:29;0.33;;;0.20;;
35462;SDS011;21578;47.892;9.970;2024-03-23T10:21:16;0.20;;;0.20;;
35462;SDS011;21578;47.892;9.970;2024-03-23T10:26:13;0.40;;;0.40;;
35462;SDS011;21578;47.892;9.970;2024-03-23T10:31:04;1.30;;;0.33;;
35462;SDS011;21578;47.892;9.970;2024-03-23T10:35:58;0.60;;;0.60;;
35462;SDS011;21578;47.892;9.970;2024-03-23T10:40:45;1.37;;;1.10;;
35462;SDS011;21578;47.892;9.970;2024-03-23T10:45:33;1.70;;;1.43;;
35462;SDS011;21578;47.892;9.970;2024-03-23T10:50:19;0.73;;;0.40;;
35462;SDS011;21578;47.892;9.970;2024-03-23T10:55:06;0.53;;;0.43;;
35462;SDS011;21578;47.892;9.970;2024-03-23T10:59:54;1.10;;;0.90;;
35462;SDS011;21578;47.892;9.970;2024-03-23T11:04:42;0.90;;;0.63;;
35462;SDS011;21578;47.892;9.970;2024-03-23T11:09:38;1.10;;;0.40;;
35462;SDS011;21578;47.892;9.970;2024-03-23T11:14:26;1.90;;;0.40;;
35462;SDS011;21578;47.892;9.970;2024-03-23T11:24:27;1.20;;;0.70;;
35462;SDS011;21578;47.892;9.970;2024-03-23T11:29:15;1.40;;;0.70;;
35462;SDS011;21578;47.892;9.970;2024-03-23T11:34:03;1.70;;;0.90;;
35462;SDS011;21578;47.892;9.970;2024-03-23T11:38:51;0.87;;;0.60;;
35462;SDS011;21578;47.892;9.970;2024-03-23T11:43:39;2.03;;;0.70;;
35462;SDS011;21578;47.892;9.970;2024-03-23T11:48:26;1.23;;;0.73;;
35462;SDS011;21578;47.892;9.970;2024-03-23T11:53:13;2.03;;;1.30;;
35462;SDS011;21578;47.892;9.970;2024-03-23T11:58:02;3.30;;;1.27;;
35462;SDS011;21578;47.892;9.970;2024-03-23T12:02:50;2.90;;;1.20;;
35462;SDS011;21578;47.892;9.970;2024-03-23T12:07:36;2.77;;;1.00;;
35462;SDS011;21578;47.892;9.970;2024-03-23T12:12:23;1.50;;;0.70;;
35462;SDS011;21578;47.892;9.970;2024-03-23T12:17:10;2.30;;;1.43;;
35462;SDS011;21578;47.892;9.970;2024-03-23T12:21:59;17.20;;;9.00;;
35462;SDS011;21578;47.892;9.970;2024-03-23T12:26:46;22.40;;;13.00;;
35462;SDS011;21578;47.892;9.970;2024-03-23T12:31:35;3.97;;;2.90;;
35462;SDS011;21578;47.892;9.970;2024-03-23T12:36:22;2.47;;;1.70;;
35462;SDS011;21578;47.892;9.970;2024-03-23T12:41:10;1.90;;;1.00;;
35462;SDS011;21578;47.892;9.970;2024-03-23T12:45:57;1.97;;;1.07;;
35462;SDS011;21578;47.892;9.970;2024-03-23T12:50:43;2.60;;;0.60;;
35462;SDS011;21578;47.892;9.970;2024-03-23T12:55:30;1.30;;;0.70;;
35462;SDS011;21578;47.892;9.970;2024-03-23T13:00:18;1.40;;;0.60;;
35462;SDS011;21578;47.892;9.970;2024-03-23T13:05:05;1.00;;;0.90;;
35462;SDS011;21578;47.892;9.970;2024-03-23T13:09:54;3.00;;;0.77;;
35462;SDS011;21578;47.892;9.970;2024-03-23T13:14:41;1.53;;;0.57;;
35462;SDS011;21578;47.892;9.970;2024-03-23T13:19:29;1.57;;;0.50;;
35462;SDS011;21578;47.892;9.970;2024-03-23T13:24:16;2.53;;;0.90;;
35462;SDS011;21578;47.892;9.970;2024-03-23T13:29:03;1.17;;;0.70;;
35462;SDS011;21578;47.892;9.970;2024-03-23T13:33:50;1.73;;;0.70;;
35462;SDS011;21578;47.892;9.970;2024-03-23T13:38:38;0.63;;;0.20;;
35462;SDS011;21578;47.892;9.970;2024-03-23T13:43:25;1.27;;;0.67;;
35462;SDS011;21578;47.892;9.970;2024-03-23T13:48:13;6.37;;;3.87;;
35462;SDS011;21578;47.892;9.970;2024-03-23T13:52:59;1.07;;;0.90;;
35462;SDS011;21578;47.892;9.970;2024-03-23T13:57:47;0.57;;;0.40;;
35462;SDS011;21578;47.892;9.970;2024-03-23T14:02:35;1.10;;;1.00;;
35462;SDS011;21578;47.892;9.970;2024-03-23T14:07:22;3.47;;;0.80;;
35462;SDS011;21578;47.892;9.970;2024-03-23T14:12:09;1.43;;;0.60;;
35462;SDS011;21578;47.892;9.970;2024-03-23T14:16:57;1.00;;;0.67;;
35462;SDS011;21578;47.892;9.970;2024-03-23T14:21:44;1.77;;;0.57;;
35462;SDS011;21578;47.892;9.970;2024-03-23T14:26:31;1.67;;;0.47;;
35462;SDS011;21578;47.892;9.970;2024-03-23T14:31:18;4.30;;;2.10;;
35462;SDS011;21578;47.892;9.970;2024-03-23T14:36:07;25.87;;;21.90;;
35462;SDS011;21578;47.892;9.970;2024-03-23T14:40:54;3.67;;;2.07;;
35462;SDS011;21578;47.892;9.970;2024-03-23T14:45:48;7.83;;;6.13;;
35462;SDS011;21578;47.892;9.970;2024-03-23T14:50:55;33.73;;;24.30;;
35462;SDS011;21578;47.892;9.970;2024-03-23T14:55:43;3.27;;;1.37;;
35462;SDS011;21578;47.892;9.970;2024-03-23T15:00:34;1.57;;;0.70;;
35462;SDS011;21578;47.892;9.970;2024-03-23T15:05:20;9.43;;;8.53;;
35462;SDS011;21578;47.892;9.970;2024-03-23T15:10:07;1.70;;;0.70;;
35462;SDS011;21578;47.892;9.970;2024-03-23T15:14:56;1.33;;;0.90;;
35462;SDS011;21578;47.892;9.970;2024-03-23T15:19:43;1.03;;;0.70;;
35462;SDS011;21578;47.892;9.970;2024-03-23T15:24:30;3.37;;;1.10;;
35462;SDS011;21578;47.892;9.970;2024-03-23T15:29:17;3.17;;;1.37;;
35462;SDS011;21578;47.892;9.970;2024-03-23T15:34:05;1.57;;;0.80;;
35462;SDS011;21578;47.892;9.970;2024-03-23T15:38:55;2.73;;;0.70;;
35462;SDS011;21578;47.892;9.970;2024-03-23T15:43:42;1.23;;;0.53;;
35462;SDS011;21578;47.892;9.970;2024-03-23T15:48:29;1.20;;;0.37;;
35462;SDS011;21578;47.892;9.970;2024-03-23T15:53:18;0.60;;;0.30;;
35462;SDS011;21578;47.892;9.970;2024-03-23T15:58:05;3.03;;;0.50;;
35462;SDS011;21578;47.892;9.970;2024-03-23T16:02:52;0.93;;;0.40;;
35462;SDS011;21578;47.892;9.970;2024-03-23T16:07:39;2.10;;;0.50;;
35462;SDS011;21578;47.892;9.970;2024-03-23T16:12:27;0.60;;;0.57;;
35462;SDS011;21578;47.892;9.970;2024-03-23T16:17:14;2.00;;;0.50;;
35462;SDS011;21578;47.892;9.970;2024-03-23T16:22:01;0.53;;;0.30;;
35462;SDS011;21578;47.892;9.970;2024-03-23T16:26:48;1.23;;;0.37;;
35462;SDS011;21578;47.892;9.970;2024-03-23T16:31:36;1.50;;;0.43;;
35462;SDS011;21578;47.892;9.970;2024-03-23T16:36:23;1.43;;;0.30;;
35462;SDS011;21578;47.892;9.970;2024-03-23T16:41:11;1.33;;;0.30;;
35462;SDS011;21578;47.892;9.970;2024-03-23T16:46:01;3.23;;;0.50;;
35462;SDS011;21578;47.892;9.970;2024-03-23T16:50:49;2.40;;;0.60;;
35462;SDS011;21578;47.892;9.970;2024-03-23T16:55:37;1.83;;;0.30;;
35462;SDS011;21578;47.892;9.970;2024-03-23T17:00:24;1.30;;;0.40;;
35462;SDS011;21578;47.892;9.970;2024-03-23T17:05:11;3.00;;;0.43;;
35462;SDS011;21578;47.892;9.970;2024-03-23T17:09:59;1.87;;;0.60;;
35462;SDS011;21578;47.892;9.970;2024-03-23T17:14:47;2.90;;;0.60;;
35462;SDS011;21578;47.892;9.970;2024-03-23T17:19:34;2.33;;;0.20;;
35462;SDS011;21578;47.892;9.970;2024-03-23T17:24:21;0.90;;;0.47;;
35462;SDS011;21578;47.892;9.970;2024-03-23T17:29:09;2.67;;;0.40;;
35462;SDS011;21578;47.892;9.970;2024-03-23T17:33:55;0.87;;;0.37;;
35462;SDS011;21578;47.892;9.970;2024-03-23T17:38:42;1.50;;;0.30;;
35462;SDS011;21578;47.892;9.970;2024-03-23T17:43:29;1.27;;;0.30;;
35462;SDS011;21578;47.892;9.970;2024-03-23T17:48:17;2.53;;;0.30;;
35462;SDS011;21578;47.892;9.970;2024-03-23T17:53:05;3.03;;;0.30;;
35462;SDS011;21578;47.892;9.970;2024-03-23T17:57:52;2.57;;;0.40;;
35462;SDS011;21578;47.892;9.970;2024-03-23T18:02:41;1.33;;;0.40;;
35462;SDS011;21578;47.892;9.970;2024-03-23T18:07:30;1.40;;;0.30;;
35462;SDS011;21578;47.892;9.970;2024-03-23T18:12:16;2.20;;;0.30;;
35462;SDS011;21578;47.892;9.970;2024-03-23T18:17:03;1.43;;;0.37;;
35462;SDS011;21578;47.892;9.970;2024-03-23T18:21:50;3.43;;;1.07;;
35462;SDS011;21578;47.892;9.970;2024-03-23T18:26:38;3.80;;;1.83;;
35462;SDS011;21578;47.892;9.970;2024-03-23T18:31:25;0.97;;;0.60;;
35462;SDS011;21578;47.892;9.970;2024-03-23T18:36:11;4.57;;;0.70;;
35462;SDS011;21578;47.892;9.970;2024-03-23T18:40:59;2.13;;;0.50;;
35462;SDS011;21578;47.892;9.970;2024-03-23T18:45:47;0.70;;;0.27;;
35462;SDS011;21578;47.892;9.970;2024-03-23T18:50:34;1.17;;;0.70;;
35462;SDS011;21578;47.892;9.970;2024-03-23T18:55:22;0.40;;;0.40;;
35462;SDS011;21578;47.892;9.970;2024-03-23T19:00:09;0.97;;;0.50;;
35462;SDS011;21578;47.892;9.970;2024-03-23T19:04:58;0.00;;;0.00;;
35462;SDS011;21578;47.892;9.970;2024-03-23T19:09:44;0.90;;;0.37;;
35462;SDS011;21578;47.892;9.970;2024-03-23T19:14:31;1.63;;;0.60;;
35462;SDS011;21578;47.892;9.970;2024-03-23T19:19:18;2.33;;;0.80;;
35462;SDS011;21578;47.892;9.970;2024-03-23T19:24:06;1.10;;;0.50;;
35462;SDS011;21578;47.892;9.970;2024-03-23T19:28:53;0.90;;;0.40;;
35462;SDS011;21578;47.892;9.970;2024-03-23T19:33:40;3.70;;;2.00;;
35462;SDS011;21578;47.892;9.970;2024-03-23T19:38:27;30.67;;;18.90;;
35462;SDS011;21578;47.892;9.970;2024-03-23T19:43:15;7.33;;;4.40;;
35462;SDS011;21578;47.892;9.970;2024-03-23T19:48:01;1.93;;;1.10;;
35462;SDS011;21578;47.892;9.970;2024-03-23T19:52:49;8.80;;;6.70;;
35462;SDS011;21578;47.892;9.970;2024-03-23T19:57:36;23.20;;;16.87;;
35462;SDS011;21578;47.892;9.970;2024-03-23T20:02:24;1.33;;;1.33;;
35462;SDS011;21578;47.892;9.970;2024-03-23T20:07:11;17.63;;;13.10;;
35462;SDS011;21578;47.892;9.970;2024-03-23T20:11:57;14.30;;;10.77;;
35462;SDS011;21578;47.892;9.970;2024-03-23T20:16:46;9.93;;;7.63;;
35462;SDS011;21578;47.892;9.970;2024-03-23T20:21:34;4.60;;;4.20;;
35462;SDS011;21578;47.892;9.970;2024-03-23T20:26:21;3.70;;;3.27;;
35462;SDS011;21578;47.892;9.970;2024-03-23T20:31:08;3.43;;;3.13;;
35462;SDS011;21578;47.892;9.970;2024-03-23T20:35:55;1.00;;;0.90;;
35462;SDS011;21578;47.892;9.970;2024-03-23T20:40:43;0.57;;;0.23;;
35462;SDS011;21578;47.892;9.970;2024-03-23T20:45:30;0.50;;;0.10;;
35462;SDS011;21578;47.892;9.970;2024-03-23T20:50:17;0.60;;;0.50;;
35462;SDS011;21578;47.892;9.970;2024-03-23T20:55:04;0.83;;;0.40;;
35462;SDS011;21578;47.892;9.970;2024-03-23T20:59:54;0.37;;;0.37;;
35462;SDS011;21578;47.892;9.970;2024-03-23T21:04:41;0.47;;;0.47;;
35462;SDS011;21578;47.892;9.970;2024-03-23T21:09:28;0.60;;;0.20;;
35462;SDS011;21578;47.892;9.970;2024-03-23T21:14:15;0.83;;;0.37;;
35462;SDS011;21578;47.892;9.970;2024-03-23T21:19:03;1.40;;;0.47;;
35462;SDS011;21578;47.892;9.970;2024-03-23T21:23:50;0.47;;;0.30;;
35462;SDS011;21578;47.892;9.970;2024-03-23T21:28:37;1.13;;;0.60;;
35462;SDS011;21578;47.892;9.970;2024-03-23T21:33:25;1.27;;;0.70;;
35462;SDS011;21578;47.892;9.970;2024-03-23T21:38:15;1.40;;;0.60;;
35462;SDS011;21578;47.892;9.970;2024-03-23T21:43:03;0.50;;;0.50;;
35462;SDS011;21578;47.892;9.970;2024-03-23T21:47:50;8.43;;;7.43;;
35462;SDS011;21578;47.892;9.970;2024-03-23T21:52:37;3.33;;;2.50;;
35462;SDS011;21578;47.892;9.970;2024-03-23T21:57:25;4.50;;;3.30;;
35462;SDS011;21578;47.892;9.970;2024-03-23T22:02:12;2.00;;;1.27;;
35462;SDS011;21578;47.892;9.970;2024-03-23T22:24:06;2.37;;;1.00;;
35462;SDS011;21578;47.892;9.970;2024-03-23T22:35:34;0.50;;;0.50;;
35462;SDS011;21578;47.892;9.970;2024-03-23T22:40:41;2.10;;;0.47;;
35462;SDS011;21578;47.892;9.970;2024-03-23T22:45:44;0.93;;;0.50;;
35462;SDS011;21578;47.892;9.970;2024-03-23T22:51:00;1.00;;;0.90;;
35462;SDS011;21578;47.892;9.970;2024-03-23T22:56:08;16.10;;;9.43;;
35462;SDS011;21578;47.892;9.970;2024-03-23T23:00:55;26.60;;;15.33;;
35462;SDS011;21578;47.892;9.970;2024-03-23T23:05:43;0.90;;;0.40;;
35462;SDS011;21578;47.892;9.970;2024-03-23T23:10:31;1.10;;;1.10;;
35462;SDS011;21578;47.892;9.970;2024-03-23T23:15:20;3.47;;;3.27;;
35462;SDS011;21578;47.892;9.970;2024-03-23T23:20:07;2.90;;;2.70;;
35462;SDS011;21578;47.892;9.970;2024-03-23T23:24:55;4.73;;;4.13;;
35462;SDS011;21578;47.892;9.970;2024-03-23T23:29:42;3.87;;;3.63;;
35462;SDS011;21578;47.892;9.970;2024-03-23T23:34:30;2.97;;;1.67;;
35462;SDS011;21578;47.892;9.970;2024-03-23T23:39:17;1.93;;;1.83;;
35462;SDS011;21578;47.892;9.970;2024-03-23T23:44:04;12.57;;;9.27;;
35462;SDS011;21578;47.892;9.970;2024-03-23T23:48:51;1.17;;;0.73;;
35462;SDS011;21578;47.892;9.970;2024-03-23T23:53:39;1.83;;;0.60;;
35462;SDS011;21578;47.892;9.970;2024-03-23T23:58:28;1.20;;;0.50;;
